Time;durP1;ratioP1;P1;durP2;ratioP2;P2;SDS_P1;SDS_P2;PMS_P1;PMS_P2;Temp;Humidity;BMP_temperature;BMP_pressure;BME280_temperature;BME280_humidity;BME280_pressure;Samples;Min_cycle;Max_cycle;Signal;HPM_P1;HPM_P2
2022/01/29 00:02:07;;;;;;;7.03;2.13;;;1.80;99.90;;;;;;4995065;28;20229;-77
2022/01/29 00:04:56;;;;;;;9.53;2.30;;;1.80;99.90;;;;;;5003022;28;20391;-77
2022/01/29 00:07:45;;;;;;;5.63;2.20;;;1.80;99.90;;;;;;4997679;28;20221;-79
2022/01/29 00:10:33;;;;;;;9.70;2.57;;;1.70;99.90;;;;;;5016680;28;20226;-78
2022/01/29 00:13:22;;;;;;;8.83;2.90;;;1.80;99.90;;;;;;4988820;28;20222;-76
2022/01/29 00:16:11;;;;;;;8.60;2.30;;;1.70;99.90;;;;;;4991289;28;20215;-76
2022/01/29 00:19:01;;;;;;;9.17;2.53;;;1.80;99.90;;;;;;5019316;28;20230;-77
2022/01/29 00:21:50;;;;;;;6.57;2.00;;;1.70;99.90;;;;;;5002398;28;20230;-78
2022/01/29 00:24:38;;;;;;;6.40;2.87;;;1.60;99.90;;;;;;4986661;28;20234;-76
2022/01/29 00:27:32;;;;;;;8.37;3.30;;;1.70;99.90;;;;;;5002855;28;20226;-77
2022/01/29 00:30:25;;;;;;;10.20;2.83;;;1.70;99.90;;;;;;5001599;28;20244;-78
2022/01/29 00:33:15;;;;;;;10.67;2.90;;;1.70;99.90;;;;;;4994040;28;20226;-76
2022/01/29 00:36:06;;;;;;;5.03;2.43;;;1.70;99.90;;;;;;5011660;28;20218;-76
2022/01/29 00:38:55;;;;;;;8.53;3.00;;;1.70;99.90;;;;;;4998310;28;20218;-75
2022/01/29 00:41:44;;;;;;;4.30;2.40;;;1.60;99.90;;;;;;4987933;28;20241;-76
2022/01/29 00:44:52;;;;;;;9.57;2.67;;;1.70;99.90;;;;;;5001729;28;20222;-76
2022/01/29 00:47:41;;;;;;;6.73;2.67;;;1.60;99.90;;;;;;4998518;28;20295;-76
2022/01/29 00:50:34;;;;;;;7.43;2.80;;;1.60;99.90;;;;;;4990244;28;20880;-77
2022/01/29 00:53:24;;;;;;;7.97;3.17;;;1.50;99.90;;;;;;4996901;28;20918;-75
2022/01/29 00:56:12;;;;;;;15.17;3.43;;;1.50;99.90;;;;;;4987201;28;20232;-76
2022/01/29 00:59:01;;;;;;;9.93;3.60;;;1.60;99.90;;;;;;5005731;28;20218;-75
2022/01/29 01:01:50;;;;;;;9.63;3.87;;;1.70;99.90;;;;;;5000944;28;20223;-72
2022/01/29 01:04:39;;;;;;;9.67;4.57;;;1.60;99.90;;;;;;5000213;28;20219;-76
2022/01/29 01:07:28;;;;;;;10.00;4.37;;;1.70;99.90;;;;;;4998383;28;20257;-77
2022/01/29 01:10:18;;;;;;;10.03;5.23;;;1.50;99.90;;;;;;4994351;28;20215;-77
2022/01/29 01:13:07;;;;;;;9.87;4.57;;;1.60;99.90;;;;;;5000758;28;20218;-76
2022/01/29 01:15:56;;;;;;;10.70;5.40;;;1.50;99.90;;;;;;5012262;28;20225;-77
2022/01/29 01:18:44;;;;;;;9.10;5.40;;;1.50;99.90;;;;;;5001037;28;20325;-79
2022/01/29 01:21:33;;;;;;;11.80;6.00;;;1.50;99.90;;;;;;5014307;28;20238;-79
2022/01/29 01:24:22;;;;;;;10.40;4.67;;;1.50;99.90;;;;;;5014324;28;20226;-79
2022/01/29 01:27:12;;;;;;;9.13;4.93;;;1.40;99.90;;;;;;4989835;28;20226;-76
2022/01/29 01:30:01;;;;;;;11.80;4.97;;;1.40;99.90;;;;;;5002439;28;20218;-79
2022/01/29 01:32:50;;;;;;;14.33;5.33;;;1.40;99.90;;;;;;5012912;28;20579;-79
2022/01/29 01:35:43;;;;;;;10.10;4.90;;;1.40;99.90;;;;;;5005144;28;20591;-78
2022/01/29 01:38:39;;;;;;;9.93;5.10;;;1.30;99.90;;;;;;4980794;28;20222;-78
2022/01/29 01:41:35;;;;;;;11.57;5.23;;;1.40;99.90;;;;;;5003165;28;20229;-78
2022/01/29 01:44:25;;;;;;;9.87;5.00;;;1.40;99.90;;;;;;4985095;28;20235;-77
2022/01/29 01:47:14;;;;;;;10.43;4.83;;;1.20;99.90;;;;;;4998161;28;20217;-77
2022/01/29 01:50:03;;;;;;;10.13;5.60;;;1.40;99.90;;;;;;4996945;28;20704;-77
2022/01/29 01:52:52;;;;;;;10.03;5.00;;;1.20;99.90;;;;;;4995535;28;20222;-78
2022/01/29 01:55:41;;;;;;;11.03;5.60;;;1.20;99.90;;;;;;4996996;28;20229;-78
2022/01/29 01:58:29;;;;;;;10.30;5.10;;;1.30;99.90;;;;;;4983881;28;20227;-78
2022/01/29 02:01:20;;;;;;;10.80;5.70;;;1.30;99.90;;;;;;4987413;28;20682;-78
2022/01/29 02:04:09;;;;;;;13.53;5.67;;;1.20;99.90;;;;;;4981780;28;20662;-79
2022/01/29 02:06:58;;;;;;;9.30;5.17;;;1.20;99.90;;;;;;5000490;28;20221;-78
2022/01/29 02:09:47;;;;;;;12.37;5.30;;;1.30;99.90;;;;;;4996554;28;20237;-76
2022/01/29 02:12:46;;;;;;;14.20;5.67;;;1.30;99.90;;;;;;4997282;28;20222;-76
2022/01/29 02:15:35;;;;;;;11.67;5.73;;;1.30;99.90;;;;;;4978236;28;20325;-76
2022/01/29 02:18:25;;;;;;;11.80;5.50;;;1.20;99.90;;;;;;4985639;28;20710;-75
2022/01/29 02:21:14;;;;;;;10.10;5.10;;;1.10;99.90;;;;;;4996531;28;20240;-76
2022/01/29 02:24:05;;;;;;;12.07;5.30;;;1.00;99.90;;;;;;4999542;28;20269;-75
2022/01/29 02:26:54;;;;;;;13.07;5.20;;;1.10;99.90;;;;;;4997845;28;20227;-74
2022/01/29 02:29:44;;;;;;;16.43;5.73;;;1.10;99.90;;;;;;5001281;28;20229;-77
2022/01/29 02:32:41;;;;;;;10.97;5.37;;;1.10;99.90;;;;;;4999982;28;20246;-76
2022/01/29 02:35:30;;;;;;;11.87;5.27;;;1.10;99.90;;;;;;4994810;28;20247;-76
2022/01/29 02:38:21;;;;;;;11.73;6.00;;;1.20;99.90;;;;;;4999598;28;20269;-77
2022/01/29 02:41:11;;;;;;;15.10;6.30;;;1.10;99.90;;;;;;4997833;28;20226;-76
2022/01/29 02:44:03;;;;;;;12.63;5.60;;;1.10;99.90;;;;;;4999782;28;20234;-76
2022/01/29 02:46:54;;;;;;;11.27;5.20;;;1.10;99.90;;;;;;4995425;28;20219;-77
2022/01/29 02:49:42;;;;;;;14.20;6.00;;;1.00;99.90;;;;;;4996327;28;20604;-77
2022/01/29 02:52:31;;;;;;;14.13;5.77;;;1.10;99.90;;;;;;4982794;28;20234;-76
2022/01/29 02:55:19;;;;;;;10.57;5.40;;;1.10;99.90;;;;;;4983271;28;20226;-77
2022/01/29 02:58:09;;;;;;;11.53;6.03;;;1.10;99.90;;;;;;5016139;28;20234;-76
2022/01/29 03:00:58;;;;;;;13.63;5.50;;;0.80;99.90;;;;;;4999678;28;20272;-76
2022/01/29 03:03:47;;;;;;;14.53;6.23;;;1.00;99.90;;;;;;4988249;28;20222;-76
2022/01/29 03:06:36;;;;;;;10.53;5.77;;;1.00;99.90;;;;;;4997651;28;20235;-77
2022/01/29 03:09:25;;;;;;;15.87;6.10;;;0.90;99.90;;;;;;4999845;28;20225;-77
2022/01/29 03:12:13;;;;;;;12.83;6.37;;;0.90;99.90;;;;;;4997108;28;20228;-76
2022/01/29 03:15:04;;;;;;;11.47;5.53;;;1.00;99.90;;;;;;4984586;28;20233;-77
2022/01/29 03:17:53;;;;;;;12.60;5.87;;;0.80;99.90;;;;;;4995677;28;20228;-77
2022/01/29 03:20:41;;;;;;;13.60;5.93;;;0.80;99.90;;;;;;5010450;28;20254;-78
2022/01/29 03:23:30;;;;;;;9.07;5.17;;;0.80;99.90;;;;;;5000541;28;20226;-77
2022/01/29 03:26:18;;;;;;;11.47;5.03;;;0.90;99.90;;;;;;4996702;28;20298;-77
2022/01/29 03:29:07;;;;;;;13.53;4.97;;;0.80;99.90;;;;;;4999512;28;20220;-77
2022/01/29 03:31:57;;;;;;;12.67;5.37;;;1.00;99.90;;;;;;4989934;28;20226;-77
2022/01/29 03:34:46;;;;;;;13.23;4.93;;;0.90;99.90;;;;;;4997129;28;20226;-78
2022/01/29 03:37:34;;;;;;;11.57;4.77;;;1.00;99.90;;;;;;4981482;28;20325;-78
2022/01/29 03:40:23;;;;;;;10.70;5.03;;;1.00;99.90;;;;;;5001620;28;20218;-78
2022/01/29 03:43:14;;;;;;;10.50;4.50;;;1.00;99.90;;;;;;4997692;28;20234;-77
2022/01/29 03:46:03;;;;;;;11.63;5.33;;;1.00;99.90;;;;;;4998788;28;20748;-78
2022/01/29 03:48:53;;;;;;;8.47;4.23;;;1.00;99.90;;;;;;4999188;28;20372;-78
2022/01/29 03:51:42;;;;;;;12.60;5.23;;;0.90;99.90;;;;;;4985519;28;20234;-77
2022/01/29 03:54:30;;;;;;;11.40;5.00;;;1.00;99.90;;;;;;4998598;28;20272;-77
2022/01/29 03:57:19;;;;;;;12.30;5.10;;;1.00;99.90;;;;;;5015000;28;20233;-77
2022/01/29 04:00:09;;;;;;;9.20;4.50;;;1.00;99.90;;;;;;4988423;28;20223;-77
2022/01/29 04:02:58;;;;;;;12.03;4.87;;;0.90;99.90;;;;;;5001092;28;20325;-77
2022/01/29 04:05:48;;;;;;;12.43;4.90;;;1.00;99.90;;;;;;4996652;28;20226;-77
2022/01/29 04:08:42;;;;;;;9.50;4.80;;;1.10;99.90;;;;;;4998507;28;20222;-77
2022/01/29 04:11:33;;;;;;;12.80;4.80;;;1.00;99.90;;;;;;4985277;28;20778;-78
2022/01/29 04:14:22;;;;;;;12.93;4.80;;;1.00;99.90;;;;;;5002703;28;20349;-75
2022/01/29 04:17:12;;;;;;;12.90;4.90;;;0.90;99.90;;;;;;5006700;28;20230;-75
2022/01/29 04:20:00;;;;;;;12.57;5.00;;;0.80;99.90;;;;;;4999851;28;20269;-76
2022/01/29 04:22:51;;;;;;;10.87;4.40;;;1.00;99.90;;;;;;5003057;28;20229;-78
2022/01/29 04:25:39;;;;;;;13.17;4.67;;;1.00;99.90;;;;;;5007588;28;20219;-77
2022/01/29 04:28:32;;;;;;;10.00;4.93;;;1.00;99.90;;;;;;5015314;28;20226;-78
2022/01/29 04:31:21;;;;;;;12.47;4.90;;;0.90;99.90;;;;;;5002753;28;20225;-75
2022/01/29 04:34:10;;;;;;;13.93;4.67;;;0.90;99.90;;;;;;5012042;28;20742;-74
2022/01/29 04:36:59;;;;;;;13.60;4.97;;;1.00;99.90;;;;;;5000838;28;21185;-75
2022/01/29 04:39:49;;;;;;;14.33;4.43;;;0.80;99.90;;;;;;5002344;28;20249;-76
2022/01/29 04:42:38;;;;;;;13.03;4.83;;;0.90;99.90;;;;;;4998573;28;20237;-76
2022/01/29 04:45:27;;;;;;;18.87;5.70;;;0.90;99.90;;;;;;5001503;28;20926;-76
2022/01/29 04:48:16;;;;;;;9.67;4.40;;;0.80;99.90;;;;;;5003498;28;20219;-78
2022/01/29 04:51:05;;;;;;;11.93;4.73;;;0.90;99.90;;;;;;5000273;28;20218;-77
2022/01/29 04:53:53;;;;;;;12.33;4.53;;;0.70;99.90;;;;;;5001730;28;20222;-76
2022/01/29 04:56:43;;;;;;;17.07;5.30;;;0.80;99.90;;;;;;4999315;28;20214;-76
2022/01/29 04:59:32;;;;;;;13.80;5.17;;;0.70;99.90;;;;;;5002849;28;22653;-78
2022/01/29 05:02:20;;;;;;;13.73;5.23;;;0.70;99.90;;;;;;4990185;28;20234;-78
2022/01/29 05:05:10;;;;;;;14.80;4.70;;;0.80;99.90;;;;;;5008789;28;20211;-77
2022/01/29 05:07:58;;;;;;;18.73;8.90;;;0.80;99.90;;;;;;5016519;28;20256;-78
2022/01/29 05:10:47;;;;;;;10.47;4.50;;;0.90;99.90;;;;;;5004557;28;20222;-79
2022/01/29 05:13:39;;;;;;;16.57;4.80;;;0.80;99.90;;;;;;5000783;28;20744;-79
2022/01/29 05:16:43;;;;;;;11.40;4.43;;;0.80;99.90;;;;;;4987956;28;20919;-79
2022/01/29 05:28:47;;;;;;;11.57;4.77;;;0.60;99.90;;;;;;4997964;28;20891;-77
2022/01/29 05:31:37;;;;;;;11.30;5.17;;;0.80;99.90;;;;;;4997959;28;20218;-77
2022/01/29 05:34:25;;;;;;;10.87;4.87;;;0.80;99.90;;;;;;4990471;28;20768;-79
2022/01/29 05:37:14;;;;;;;13.27;4.80;;;0.80;99.90;;;;;;4985074;28;20717;-77
2022/01/29 05:40:03;;;;;;;13.33;5.30;;;0.60;99.90;;;;;;4995313;28;20786;-78
2022/01/29 05:42:52;;;;;;;15.27;5.63;;;0.70;99.90;;;;;;4987770;28;20221;-76
2022/01/29 05:45:42;;;;;;;15.40;5.70;;;0.80;99.90;;;;;;5009918;28;20231;-77
2022/01/29 05:48:30;;;;;;;12.27;4.73;;;0.70;99.90;;;;;;4990263;28;20706;-77
2022/01/29 05:51:19;;;;;;;13.97;5.53;;;0.70;99.90;;;;;;4997953;28;20602;-78
2022/01/29 05:54:08;;;;;;;18.07;5.97;;;0.70;99.90;;;;;;4999384;28;20872;-78
2022/01/29 05:56:57;;;;;;;12.10;5.60;;;0.70;99.90;;;;;;4996473;28;20803;-77
2022/01/29 05:59:49;;;;;;;13.03;5.70;;;0.60;99.90;;;;;;5003936;28;20230;-77
2022/01/29 06:02:39;;;;;;;13.67;5.90;;;0.60;99.90;;;;;;4981228;28;20397;-80
2022/01/29 06:05:28;;;;;;;14.07;6.07;;;0.60;99.90;;;;;;4990123;28;20277;-78
2022/01/29 06:08:16;;;;;;;10.73;5.80;;;0.60;99.90;;;;;;4985670;28;20221;-76
2022/01/29 06:11:05;;;;;;;13.60;5.90;;;0.50;99.90;;;;;;4988392;28;20230;-75
2022/01/29 06:13:54;;;;;;;15.97;6.50;;;0.70;99.90;;;;;;4999532;28;20219;-75
2022/01/29 06:16:43;;;;;;;12.93;6.43;;;0.60;99.90;;;;;;4989744;28;20305;-75
2022/01/29 06:19:33;;;;;;;18.10;6.67;;;0.50;99.90;;;;;;4985419;28;20254;-75
2022/01/29 06:22:22;;;;;;;19.43;5.87;;;0.60;99.90;;;;;;4997799;28;20222;-75
2022/01/29 06:25:12;;;;;;;14.80;5.90;;;0.60;99.90;;;;;;4997252;28;20214;-75
2022/01/29 06:28:01;;;;;;;12.50;6.17;;;0.60;99.90;;;;;;4986128;28;20226;-74
2022/01/29 06:30:50;;;;;;;13.57;6.47;;;0.70;99.90;;;;;;4995359;28;20233;-74
2022/01/29 06:33:40;;;;;;;17.57;6.97;;;0.70;99.90;;;;;;4981864;28;20228;-75
2022/01/29 06:36:30;;;;;;;13.80;7.00;;;0.70;99.90;;;;;;4994636;28;20234;-75
2022/01/29 06:39:19;;;;;;;12.80;6.40;;;0.70;99.90;;;;;;4993690;28;20238;-74
2022/01/29 06:42:08;;;;;;;15.87;6.60;;;0.80;99.90;;;;;;4983740;28;20222;-74
2022/01/29 06:44:56;;;;;;;13.67;7.13;;;0.70;99.90;;;;;;4991989;28;20226;-74
2022/01/29 06:47:45;;;;;;;18.57;6.43;;;0.70;99.90;;;;;;4996197;28;20223;-74
2022/01/29 06:50:34;;;;;;;13.80;6.17;;;0.60;99.90;;;;;;4996514;28;20555;-73
2022/01/29 06:53:24;;;;;;;15.53;6.20;;;0.60;99.90;;;;;;4978880;28;20309;-74
2022/01/29 06:56:13;;;;;;;15.40;6.30;;;0.60;99.90;;;;;;4991793;28;20833;-74
2022/01/29 06:59:02;;;;;;;16.70;5.80;;;0.70;99.90;;;;;;4983270;28;20218;-75
2022/01/29 07:01:59;;;;;;;13.23;6.37;;;0.80;99.90;;;;;;4968759;28;21788;-74
2022/01/29 07:04:48;;;;;;;15.70;5.97;;;0.80;99.90;;;;;;4996718;28;20282;-74
2022/01/29 07:07:37;;;;;;;14.67;6.13;;;0.60;99.90;;;;;;4993851;28;20230;-73
2022/01/29 07:10:27;;;;;;;14.00;6.43;;;0.70;99.90;;;;;;4985134;28;20221;-76
2022/01/29 07:13:15;;;;;;;17.10;6.07;;;0.70;99.90;;;;;;4998647;28;20234;-73
2022/01/29 07:16:04;;;;;;;13.53;5.63;;;0.80;99.90;;;;;;4998426;28;20218;-74
2022/01/29 07:18:53;;;;;;;14.97;5.80;;;0.80;99.90;;;;;;5000880;28;20715;-74
2022/01/29 07:21:42;;;;;;;15.83;5.83;;;0.80;99.90;;;;;;5014607;28;20742;-74
2022/01/29 07:24:30;;;;;;;15.37;5.93;;;1.00;99.90;;;;;;4989555;28;20728;-74
2022/01/29 07:27:21;;;;;;;12.93;6.10;;;1.00;99.90;;;;;;4984308;28;20237;-73
2022/01/29 07:30:11;;;;;;;16.43;5.80;;;1.00;99.90;;;;;;5001825;28;20568;-72
2022/01/29 07:32:59;;;;;;;16.03;6.07;;;1.10;99.90;;;;;;5002345;28;20651;-72
2022/01/29 07:35:48;;;;;;;14.33;6.10;;;1.20;99.90;;;;;;5002958;28;20219;-73
2022/01/29 07:38:37;;;;;;;17.37;6.73;;;1.10;99.90;;;;;;5005073;28;20225;-74
2022/01/29 07:41:25;;;;;;;15.10;6.63;;;1.20;99.90;;;;;;4988986;28;20214;-71
2022/01/29 07:44:15;;;;;;;16.77;7.17;;;1.30;99.90;;;;;;5013823;28;20229;-75
2022/01/29 07:47:05;;;;;;;21.43;7.67;;;1.20;99.90;;;;;;4986929;28;20230;-78
2022/01/29 07:49:54;;;;;;;19.60;7.63;;;1.10;99.90;;;;;;4983299;28;20725;-79
2022/01/29 07:52:42;;;;;;;20.17;7.80;;;1.10;99.90;;;;;;5001561;28;20226;-80
2022/01/29 07:55:31;;;;;;;16.17;7.27;;;1.20;99.90;;;;;;4999337;28;20234;-80
2022/01/29 07:58:20;;;;;;;20.57;7.47;;;1.20;99.90;;;;;;5002273;28;20237;-80
2022/01/29 08:01:10;;;;;;;19.83;7.40;;;1.10;99.90;;;;;;4989502;28;20224;-82
2022/01/29 08:03:59;;;;;;;18.83;6.87;;;1.20;99.90;;;;;;5001468;28;20263;-81
2022/01/29 08:06:47;;;;;;;16.27;7.13;;;1.10;99.90;;;;;;5002283;28;20297;-80
2022/01/29 08:09:36;;;;;;;19.57;7.07;;;1.10;99.90;;;;;;5000324;28;20230;-80
2022/01/29 08:12:25;;;;;;;18.30;7.23;;;1.30;99.90;;;;;;5003889;28;20218;-80
2022/01/29 08:15:13;;;;;;;18.50;6.40;;;1.30;99.90;;;;;;5003994;28;20696;-80
2022/01/29 08:18:05;;;;;;;21.20;7.10;;;1.40;99.90;;;;;;5003750;28;20225;-82
2022/01/29 08:20:53;;;;;;;23.13;7.97;;;1.50;99.90;;;;;;5006292;28;20222;-81
2022/01/29 08:23:42;;;;;;;16.40;7.30;;;1.50;99.90;;;;;;4991549;28;20222;-82
2022/01/29 08:26:31;;;;;;;21.97;7.07;;;1.50;99.90;;;;;;5005441;28;20531;-80
2022/01/29 08:29:20;;;;;;;19.70;6.90;;;1.60;99.90;;;;;;4990588;28;20223;-78
2022/01/29 08:32:09;;;;;;;20.33;7.17;;;1.60;99.90;;;;;;5016152;28;20214;-79
2022/01/29 08:35:00;;;;;;;21.40;7.93;;;1.60;99.90;;;;;;5016611;28;20274;-79
2022/01/29 08:37:48;;;;;;;15.90;7.20;;;1.60;99.90;;;;;;4999422;28;20225;-80
2022/01/29 08:40:39;;;;;;;20.43;7.70;;;1.70;99.90;;;;;;5009399;28;20222;-80
2022/01/29 08:43:28;;;;;;;18.87;7.43;;;1.70;99.90;;;;;;5005345;28;20642;-80
2022/01/29 08:46:17;;;;;;;19.23;7.83;;;1.70;99.90;;;;;;5004179;28;20218;-79
2022/01/29 08:49:05;;;;;;;23.03;8.50;;;1.90;99.90;;;;;;5012117;28;20349;-80
2022/01/29 08:51:56;;;;;;;20.33;8.67;;;1.80;99.90;;;;;;5004890;28;20706;-80
2022/01/29 08:54:44;;;;;;;24.43;8.40;;;1.90;99.90;;;;;;4980658;28;20235;-80
2022/01/29 08:57:33;;;;;;;22.87;9.10;;;2.00;99.90;;;;;;4987250;28;20244;-79
2022/01/29 09:00:25;;;;;;;27.27;8.33;;;2.00;99.90;;;;;;5000051;28;20399;-83
2022/01/29 09:03:15;;;;;;;21.47;8.00;;;2.20;99.90;;;;;;4996171;28;20226;-73
2022/01/29 09:06:04;;;;;;;27.73;8.77;;;2.30;99.90;;;;;;4996837;28;20234;-75
2022/01/29 09:08:54;;;;;;;26.00;9.07;;;2.30;99.90;;;;;;5010602;28;20222;-72
2022/01/29 09:11:43;;;;;;;26.27;8.97;;;2.30;99.90;;;;;;5009115;28;20226;-72
2022/01/29 09:14:31;;;;;;;25.90;9.10;;;2.40;99.90;;;;;;4994289;28;20222;-75
2022/01/29 09:17:20;;;;;;;23.33;8.67;;;2.40;99.90;;;;;;4979268;28;20226;-73
2022/01/29 09:20:10;;;;;;;26.10;8.50;;;2.50;99.90;;;;;;4985990;28;20226;-76
2022/01/29 09:22:59;;;;;;;25.63;9.17;;;2.50;99.90;;;;;;4984173;28;20223;-76
2022/01/29 09:25:49;;;;;;;18.73;7.87;;;2.60;99.90;;;;;;4995838;28;20241;-75
2022/01/29 09:28:38;;;;;;;25.23;8.63;;;2.90;99.90;;;;;;5008482;28;20233;-75
2022/01/29 09:31:26;;;;;;;17.80;8.70;;;3.10;99.90;;;;;;4994007;28;20222;-72
2022/01/29 09:34:15;;;;;;;29.07;9.27;;;3.20;99.90;;;;;;4993692;28;20226;-75
2022/01/29 09:37:04;;;;;;;25.63;8.97;;;3.40;99.90;;;;;;4983218;28;20300;-75
2022/01/29 09:39:54;;;;;;;24.83;8.50;;;3.30;99.90;;;;;;4995208;28;20223;-79
2022/01/29 09:42:45;;;;;;;25.73;8.70;;;3.40;99.90;;;;;;4983243;28;20230;-78
2022/01/29 09:45:34;;;;;;;22.57;9.00;;;3.40;99.90;;;;;;5011739;28;20223;-77
2022/01/29 09:48:24;;;;;;;24.17;8.77;;;3.40;99.90;;;;;;4983613;28;20229;-77
2022/01/29 09:51:13;;;;;;;23.67;8.67;;;3.20;99.90;;;;;;4998856;28;20218;-78
2022/01/29 09:54:02;;;;;;;25.90;8.67;;;3.10;99.90;;;;;;5000550;28;20218;-78
2022/01/29 09:56:50;;;;;;;26.73;9.40;;;3.30;99.90;;;;;;4988014;28;20231;-78
2022/01/29 09:59:41;;;;;;;25.67;7.90;;;3.30;99.90;;;;;;5004454;28;20705;-80
2022/01/29 10:02:30;;;;;;;24.30;7.53;;;3.40;99.90;;;;;;5001396;28;20860;-73
2022/01/29 10:05:18;;;;;;;28.97;7.17;;;3.50;99.90;;;;;;4984790;28;20227;-77
2022/01/29 10:08:08;;;;;;;26.90;7.57;;;3.60;99.90;;;;;;4998974;28;20644;-79
2022/01/29 10:10:58;;;;;;;21.93;6.73;;;3.80;99.90;;;;;;4998046;28;20302;-78
2022/01/29 10:13:48;;;;;;;27.23;9.77;;;3.80;99.90;;;;;;5000093;28;20231;-76
2022/01/29 10:16:43;;;;;;;21.10;7.33;;;3.80;99.90;;;;;;5014624;28;20253;-76
2022/01/29 10:19:34;;;;;;;25.97;7.50;;;3.90;99.90;;;;;;4995932;28;20284;-75
2022/01/29 10:22:23;;;;;;;21.17;7.27;;;3.90;99.90;;;;;;4995581;28;20230;-75
2022/01/29 10:25:13;;;;;;;25.80;6.70;;;3.90;99.90;;;;;;4996690;28;20219;-75
2022/01/29 10:28:14;;;;;;;21.80;6.17;;;3.90;99.90;;;;;;4985619;28;20975;-75
2022/01/29 10:31:04;;;;;;;24.90;6.57;;;4.20;99.90;;;;;;4997313;28;20222;-74
2022/01/29 10:33:55;;;;;;;17.50;6.10;;;4.40;99.90;;;;;;5010731;28;20313;-75
2022/01/29 10:36:43;;;;;;;21.97;5.97;;;4.50;99.90;;;;;;4998755;28;20227;-75
2022/01/29 10:39:32;;;;;;;21.03;6.20;;;4.60;99.90;;;;;;4986323;28;20720;-72
2022/01/29 10:42:23;;;;;;;20.53;6.07;;;4.80;99.90;;;;;;4985268;28;20220;-73
2022/01/29 10:45:12;;;;;;;23.63;5.83;;;4.90;99.90;;;;;;4996872;28;20235;-71
2022/01/29 10:48:03;;;;;;;25.60;6.53;;;5.00;99.90;;;;;;4999313;28;20223;-73
2022/01/29 10:51:10;;;;;;;22.90;6.20;;;5.00;99.90;;;;;;4991561;28;20225;-71
2022/01/29 10:54:16;;;;;;;18.20;6.00;;;4.90;99.90;;;;;;4984699;28;20244;-71
2022/01/29 10:57:08;;;;;;;29.50;6.43;;;4.90;99.90;;;;;;4998674;28;20324;-71
2022/01/29 10:59:56;;;;;;;16.17;5.43;;;5.00;99.90;;;;;;4994251;28;20245;-73
2022/01/29 11:02:46;;;;;;;20.27;5.70;;;4.90;99.90;;;;;;4978822;28;20226;-74
2022/01/29 11:05:36;;;;;;;22.03;6.50;;;5.00;99.90;;;;;;4997580;28;20359;-73
2022/01/29 11:08:26;;;;;;;22.90;5.70;;;5.20;99.90;;;;;;4994989;28;20249;-74
2022/01/29 11:11:16;;;;;;;22.47;6.03;;;5.20;99.90;;;;;;4991743;28;20234;-72
2022/01/29 11:14:25;;;;;;;22.77;6.43;;;5.20;99.90;;;;;;4984241;28;20316;-69
2022/01/29 11:17:15;;;;;;;24.50;5.77;;;5.20;99.90;;;;;;4985157;28;20222;-69
2022/01/29 11:20:05;;;;;;;23.83;6.40;;;5.20;99.90;;;;;;4992587;28;20233;-74
2022/01/29 11:22:55;;;;;;;20.93;6.47;;;5.20;99.90;;;;;;5003971;28;20241;-74
2022/01/29 11:25:45;;;;;;;28.20;6.30;;;5.10;99.90;;;;;;4994412;28;20225;-72
2022/01/29 11:28:34;;;;;;;20.57;6.43;;;5.00;99.90;;;;;;4995786;28;20791;-73
2022/01/29 11:31:28;;;;;;;26.60;5.97;;;5.10;99.90;;;;;;4980465;28;20252;-72
2022/01/29 11:34:23;;;;;;;24.17;6.40;;;5.10;99.90;;;;;;4997052;28;20231;-72
2022/01/29 11:37:12;;;;;;;17.50;4.93;;;5.00;99.90;;;;;;4988261;28;20247;-72
2022/01/29 11:40:12;;;;;;;24.70;6.10;;;5.00;99.90;;;;;;4995485;28;20229;-72
2022/01/29 11:43:11;;;;;;;25.23;6.60;;;4.90;99.90;;;;;;4983938;28;20236;-74
2022/01/29 11:46:04;;;;;;;24.60;6.20;;;5.00;99.90;;;;;;4992956;28;20230;-71
2022/01/29 11:48:55;;;;;;;27.10;6.80;;;5.00;99.90;;;;;;4986146;28;20226;-71
2022/01/29 11:51:46;;;;;;;21.30;5.30;;;5.20;99.90;;;;;;5007411;28;20225;-73
2022/01/29 11:54:58;;;;;;;18.03;6.10;;;5.10;99.90;;;;;;4992784;28;20241;-74
2022/01/29 11:58:20;;;;;;;22.33;6.53;;;5.10;99.90;;;;;;4996475;28;20317;-71
2022/01/29 12:01:31;;;;;;;24.20;6.30;;;4.90;99.90;;;;;;5000842;28;20708;-71
2022/01/29 12:04:21;;;;;;;24.73;6.63;;;5.00;99.90;;;;;;4997165;28;20332;-72
2022/01/29 12:07:14;;;;;;;21.87;6.57;;;5.00;99.90;;;;;;4995540;28;20230;-74
2022/01/29 12:10:06;;;;;;;22.63;6.50;;;5.00;99.90;;;;;;4996218;28;20221;-72
2022/01/29 12:13:11;;;;;;;23.47;7.37;;;4.90;99.90;;;;;;5009803;28;20225;-71
2022/01/29 12:16:05;;;;;;;21.27;6.93;;;4.90;99.90;;;;;;4984193;28;20221;-74
2022/01/29 12:18:54;;;;;;;13.83;5.37;;;4.60;99.90;;;;;;4996546;28;20233;-74
2022/01/29 12:21:43;;;;;;;26.43;7.20;;;4.70;99.90;;;;;;4994180;28;20229;-73
2022/01/29 12:24:31;;;;;;;21.30;8.30;;;4.60;99.90;;;;;;4997597;28;20237;-73
2022/01/29 12:27:20;;;;;;;28.50;7.77;;;4.60;99.90;;;;;;4985506;28;20293;-72
2022/01/29 12:30:11;;;;;;;26.13;8.50;;;4.70;99.90;;;;;;4996936;28;20228;-72
2022/01/29 12:33:03;;;;;;;20.70;7.13;;;4.60;99.90;;;;;;4992227;28;20282;-74
2022/01/29 12:35:56;;;;;;;20.13;8.10;;;4.50;99.90;;;;;;4984268;28;20259;-72
2022/01/29 12:38:45;;;;;;;20.83;7.87;;;4.40;99.90;;;;;;4998313;28;20234;-72
2022/01/29 12:41:38;;;;;;;27.47;9.07;;;4.40;99.90;;;;;;4997929;28;20250;-72
2022/01/29 12:44:27;;;;;;;24.93;8.57;;;4.30;99.90;;;;;;4998860;28;20335;-72
2022/01/29 12:47:25;;;;;;;19.63;7.67;;;4.30;99.90;;;;;;5010171;28;20225;-73
2022/01/29 12:50:22;;;;;;;26.00;8.70;;;4.30;99.90;;;;;;4997035;28;20245;-72
2022/01/29 12:53:12;;;;;;;31.37;8.37;;;4.30;99.90;;;;;;4995875;28;20222;-72
2022/01/29 12:56:02;;;;;;;25.23;7.80;;;4.20;99.90;;;;;;4986075;28;20673;-73
2022/01/29 12:58:51;;;;;;;23.93;6.13;;;4.10;99.90;;;;;;4984932;28;20233;-74
2022/01/29 13:01:42;;;;;;;25.83;7.90;;;4.10;99.90;;;;;;5009045;28;20712;-72
2022/01/29 13:04:31;;;;;;;26.90;7.97;;;4.00;99.90;;;;;;4996469;28;20300;-73
2022/01/29 13:07:22;;;;;;;22.50;8.47;;;3.90;99.90;;;;;;4996808;28;20460;-73
2022/01/29 13:10:12;;;;;;;22.20;8.23;;;3.90;99.90;;;;;;4998177;28;20669;-71
2022/01/29 13:13:01;;;;;;;24.07;7.67;;;3.80;99.90;;;;;;4994933;28;20235;-73
2022/01/29 13:15:49;;;;;;;24.67;8.63;;;3.80;99.90;;;;;;5009719;28;20233;-72
2022/01/29 13:18:38;;;;;;;22.93;8.30;;;3.80;99.90;;;;;;4994807;28;20234;-71
2022/01/29 13:21:28;;;;;;;27.63;8.83;;;3.70;99.90;;;;;;4998879;28;20390;-71
2022/01/29 13:24:33;;;;;;;26.70;9.10;;;3.70;99.90;;;;;;5002241;28;20266;-75
2022/01/29 13:27:29;;;;;;;22.33;7.57;;;3.70;99.90;;;;;;4998948;28;20569;-75
2022/01/29 13:30:23;;;;;;;29.07;9.43;;;3.70;99.90;;;;;;5006587;28;20565;-75
2022/01/29 13:33:15;;;;;;;26.10;9.07;;;3.70;99.90;;;;;;4995422;28;20361;-75
2022/01/29 13:36:03;;;;;;;28.87;9.87;;;3.60;99.90;;;;;;5009413;28;20227;-76
2022/01/29 13:39:06;;;;;;;23.30;8.90;;;3.60;99.90;;;;;;4983465;28;20231;-76
2022/01/29 13:42:08;;;;;;;28.67;10.13;;;3.60;99.90;;;;;;4996320;28;20240;-76
2022/01/29 13:45:09;;;;;;;32.57;9.37;;;3.60;99.90;;;;;;4981271;28;20310;-74
2022/01/29 13:48:01;;;;;;;27.90;9.20;;;3.60;99.90;;;;;;4987845;28;20298;-74
2022/01/29 13:50:57;;;;;;;25.00;8.83;;;3.70;99.90;;;;;;4975390;28;20242;-73
2022/01/29 13:53:47;;;;;;;21.50;7.63;;;3.60;99.90;;;;;;4996176;28;20216;-74
2022/01/29 13:56:39;;;;;;;21.57;7.70;;;3.50;99.90;;;;;;4994689;28;20687;-75
2022/01/29 13:59:29;;;;;;;20.77;8.53;;;3.50;99.90;;;;;;5000312;28;20362;-73
2022/01/29 14:02:18;;;;;;;25.03;9.17;;;3.50;99.90;;;;;;5000335;28;20234;-70
2022/01/29 14:05:07;;;;;;;24.93;8.70;;;3.50;99.90;;;;;;4994775;28;20236;-73
2022/01/29 14:08:19;;;;;;;21.33;9.10;;;3.40;99.90;;;;;;4995914;28;20230;-73
2022/01/29 14:11:14;;;;;;;28.77;9.53;;;3.40;99.90;;;;;;5004547;28;20222;-73
2022/01/29 14:14:02;;;;;;;26.17;9.50;;;3.40;99.90;;;;;;4984444;28;20223;-73
2022/01/29 14:16:53;;;;;;;29.67;10.43;;;3.40;99.90;;;;;;5012002;28;20210;-73
2022/01/29 14:19:43;;;;;;;28.30;10.27;;;3.50;99.90;;;;;;4994147;28;20226;-74
2022/01/29 14:22:34;;;;;;;25.27;9.77;;;3.50;99.90;;;;;;4985253;28;20631;-73
2022/01/29 14:25:23;;;;;;;22.40;8.60;;;3.50;99.90;;;;;;4995392;28;20817;-75
2022/01/29 14:28:11;;;;;;;19.87;6.97;;;3.40;99.90;;;;;;4992733;28;20254;-73
2022/01/29 14:31:00;;;;;;;24.87;10.03;;;3.30;99.90;;;;;;4996660;28;20210;-73
2022/01/29 14:33:50;;;;;;;23.50;9.50;;;3.30;99.90;;;;;;4992496;28;20233;-73
2022/01/29 14:36:41;;;;;;;18.47;8.40;;;3.40;99.90;;;;;;4996193;28;20687;-75
2022/01/29 14:39:30;;;;;;;15.70;7.23;;;3.30;99.90;;;;;;5007685;28;20905;-73
2022/01/29 14:42:25;;;;;;;27.83;10.63;;;3.30;99.90;;;;;;4982625;28;20681;-74
2022/01/29 14:45:15;;;;;;;22.53;8.80;;;3.30;99.90;;;;;;4993635;28;20263;-73
2022/01/29 14:48:06;;;;;;;13.63;5.83;;;3.30;99.90;;;;;;4997661;28;20223;-74
2022/01/29 14:50:56;;;;;;;19.63;9.03;;;3.20;99.90;;;;;;4993423;28;20226;-71
2022/01/29 14:53:46;;;;;;;19.33;7.80;;;3.20;99.90;;;;;;4986447;28;20222;-74
2022/01/29 14:56:35;;;;;;;16.17;5.90;;;3.10;99.90;;;;;;4995681;28;20368;-74
2022/01/29 14:59:24;;;;;;;18.10;7.37;;;3.10;99.90;;;;;;4993906;28;21079;-74